createdAt,value
2018-12-15T07:21:25.690Z,63.84
2018-12-15T07:26:31.910Z,65.79
2018-12-15T07:31:37.711Z,63.26
2018-12-15T07:36:43.353Z,64.51
2018-12-15T07:41:49.479Z,63.82
2018-12-15T07:46:55.215Z,64.25
2018-12-15T07:52:00.735Z,62.68
2018-12-15T07:57:06.658Z,63.50
2018-12-15T08:02:12.240Z,64.68
2018-12-15T08:07:17.855Z,64.01
2018-12-15T08:12:27.853Z,63.85
2018-12-15T08:17:33.719Z,63.18
2018-12-15T08:22:38.731Z,64.48
2018-12-15T08:27:43.898Z,65.00
2018-12-15T08:32:49.024Z,64.16
2018-12-15T08:37:54.454Z,64.05
2018-12-15T08:42:59.479Z,65.14
2018-12-15T08:48:06.051Z,64.68
2018-12-15T08:53:11.016Z,64.65
2018-12-15T08:58:16.438Z,64.81
2018-12-15T09:03:21.418Z,63.53
2018-12-15T09:08:26.460Z,65.47
2018-12-15T09:13:31.699Z,65.07
2018-12-15T09:18:37.203Z,65.76
2018-12-15T09:23:43.201Z,64.98
2018-12-15T09:28:48.490Z,65.31
2018-12-15T09:33:53.496Z,66.51
2018-12-15T09:38:58.414Z,67.52
2018-12-15T09:44:03.801Z,67.46
2018-12-15T09:49:09.791Z,67.55
2018-12-15T09:54:15.114Z,67.34
2018-12-15T09:59:20.555Z,66.87
2018-12-15T10:04:25.658Z,67.18
2018-12-15T10:09:30.583Z,67.22
2018-12-15T10:14:35.843Z,67.54
2018-12-15T10:19:40.944Z,67.45
2018-12-15T10:24:45.862Z,67.03
2018-12-15T10:29:55.877Z,67.00
2018-12-15T10:35:02.133Z,67.42
2018-12-15T10:40:08.825Z,68.45
2018-12-15T10:45:16.398Z,69.42
2018-12-15T10:50:22.009Z,67.59
2018-12-15T10:55:27.334Z,67.50
2018-12-15T11:04:53.616Z,68.76
2018-12-15T11:09:58.803Z,68.69
2018-12-15T11:15:05.291Z,69.19
2018-12-15T11:20:10.924Z,68.39
2018-12-15T11:25:16.098Z,67.84
2018-12-15T11:30:21.123Z,68.23
2018-12-15T11:35:26.951Z,68.39
2018-12-15T11:40:33.895Z,67.49
2018-12-15T11:45:40.704Z,66.38
2018-12-15T11:50:45.886Z,67.93
2018-12-15T11:55:50.909Z,66.90
2018-12-15T12:00:57.314Z,68.09
2018-12-15T12:06:02.793Z,67.90
2018-12-15T12:11:08.729Z,68.93
2018-12-15T12:16:13.795Z,68.10
2018-12-15T12:21:19.000Z,67.61
2018-12-15T12:26:24.114Z,67.31
2018-12-15T12:31:29.119Z,68.37
2018-12-15T12:36:35.702Z,68.45
2018-12-15T12:41:40.843Z,69.78
2018-12-15T12:46:46.055Z,68.66
2018-12-15T12:51:51.159Z,69.09
2018-12-15T12:56:57.926Z,68.53
2018-12-15T13:02:04.429Z,68.58
2018-12-15T13:07:11.311Z,68.10
2018-12-15T13:12:16.377Z,70.16
2018-12-15T13:17:21.505Z,69.61
2018-12-15T13:22:27.723Z,69.04
2018-12-15T13:27:32.886Z,69.79
2018-12-15T13:32:37.905Z,69.38
2018-12-15T13:42:54.702Z,70.00
2018-12-15T13:48:00.647Z,70.44
2018-12-15T13:53:06.422Z,70.76
2018-12-15T13:58:11.559Z,69.44
2018-12-15T14:03:16.599Z,69.12
2018-12-15T14:08:21.655Z,68.90
2018-12-15T14:13:27.850Z,68.55
2018-12-15T14:18:33.097Z,67.75
2018-12-15T14:23:38.459Z,67.53
2018-12-15T14:28:43.713Z,66.65
2018-12-15T14:33:48.739Z,66.35
2018-12-15T14:38:53.975Z,67.39
2018-12-15T14:43:58.984Z,68.24
2018-12-15T14:49:04.074Z,68.78
2018-12-15T14:54:09.264Z,68.55
2018-12-15T15:04:24.828Z,67.31
2018-12-15T15:09:30.291Z,69.17
2018-12-15T15:14:36.237Z,68.33
2018-12-15T15:19:41.721Z,69.89
2018-12-15T15:24:46.716Z,69.10
2018-12-15T15:29:53.061Z,71.17
2018-12-15T15:34:58.870Z,71.43
2018-12-15T15:40:06.956Z,71.30
2018-12-15T15:45:13.028Z,70.60
2018-12-15T15:50:18.056Z,69.65
2018-12-15T15:55:23.638Z,69.76
2018-12-15T16:00:29.238Z,69.69
2018-12-15T16:05:34.257Z,68.67
2018-12-15T16:10:40.507Z,68.52
2018-12-15T16:15:46.022Z,68.23
2018-12-15T16:20:51.110Z,66.76
2018-12-15T16:25:56.186Z,68.07
2018-12-15T16:31:01.292Z,69.38
2018-12-15T16:36:06.672Z,67.79
2018-12-15T16:41:11.907Z,68.38
2018-12-15T16:46:17.810Z,68.26
2018-12-15T16:51:23.838Z,68.29
2018-12-15T16:56:30.036Z,66.96
2018-12-15T17:01:36.009Z,67.44
2018-12-15T17:06:41.117Z,67.45
2018-12-15T17:11:46.765Z,67.31
2018-12-15T17:16:52.726Z,68.33
2018-12-15T17:21:58.343Z,68.10
2018-12-15T17:27:04.338Z,68.89
2018-12-15T17:32:10.356Z,67.42
2018-12-15T17:37:16.624Z,68.23
2018-12-15T17:42:23.681Z,67.51
2018-12-15T17:47:28.823Z,68.39
2018-12-15T17:52:34.023Z,67.55
2018-12-15T17:57:40.114Z,69.41
2018-12-15T18:02:53.537Z,68.72
2018-12-15T18:07:58.649Z,68.60
2018-12-15T18:13:04.106Z,67.54
2018-12-15T18:23:21.280Z,67.27
2018-12-15T18:28:27.776Z,67.16
2018-12-15T18:33:39.073Z,68.01
2018-12-15T18:38:44.287Z,68.49
2018-12-15T18:43:50.179Z,69.47
2018-12-15T18:48:56.092Z,68.61
2018-12-15T18:54:01.798Z,68.70
2018-12-15T18:59:09.340Z,68.07
2018-12-15T19:04:17.256Z,69.87
2018-12-15T19:09:23.329Z,69.40
2018-12-15T19:14:29.604Z,68.89
2018-12-15T19:19:35.761Z,68.21
2018-12-15T19:24:42.281Z,67.41
2018-12-15T19:29:48.436Z,67.51
2018-12-15T19:34:54.681Z,67.34
2018-12-15T19:40:02.044Z,67.45
2018-12-15T19:45:09.458Z,67.92
2018-12-15T19:50:16.022Z,66.46
2018-12-15T19:55:21.498Z,65.72
2018-12-15T20:00:32.079Z,66.67
2018-12-15T20:05:37.676Z,65.85
2018-12-15T20:10:45.265Z,65.30
2018-12-15T20:15:51.958Z,65.08
2018-12-15T20:20:58.801Z,65.24
2018-12-15T20:26:06.258Z,64.12
2018-12-15T20:31:12.304Z,65.33
2018-12-15T20:36:18.304Z,65.01
2018-12-15T20:41:24.162Z,65.66
2018-12-15T20:46:32.114Z,65.23
2018-12-15T20:51:42.969Z,65.56
2018-12-15T20:56:47.802Z,66.28
2018-12-15T21:01:53.837Z,66.24
2018-12-15T21:07:00.025Z,66.36
2018-12-15T21:17:19.561Z,66.20
2018-12-15T21:22:24.667Z,66.10
2018-12-15T21:27:32.592Z,65.27
2018-12-15T21:32:37.916Z,65.12
2018-12-15T21:37:43.309Z,65.20
2018-12-15T21:42:49.289Z,64.74
2018-12-15T21:47:57.794Z,65.07
2018-12-15T21:53:02.597Z,65.15
2018-12-15T21:58:08.132Z,65.83
2018-12-15T22:03:13.627Z,65.35
2018-12-15T22:08:18.692Z,64.90
2018-12-15T22:13:23.847Z,64.50
2018-12-15T22:18:29.422Z,65.85
2018-12-15T22:23:35.307Z,65.55
2018-12-15T22:28:40.314Z,64.88
2018-12-15T22:33:45.512Z,64.31
2018-12-15T22:38:50.509Z,64.54
2018-12-15T22:43:58.138Z,63.48
2018-12-15T22:49:04.810Z,65.29
2018-12-15T22:54:10.447Z,64.26
2018-12-15T22:59:15.821Z,64.98
2018-12-15T23:04:21.006Z,65.46
2018-12-15T23:09:26.151Z,64.96
2018-12-15T23:14:32.328Z,65.34
2018-12-15T23:19:39.279Z,65.26
2018-12-15T23:24:45.519Z,65.56
2018-12-15T23:29:50.795Z,65.37
2018-12-15T23:34:56.271Z,65.09
2018-12-15T23:40:01.972Z,64.98
2018-12-15T23:45:09.189Z,64.14
2018-12-15T23:50:14.602Z,64.15
2018-12-15T23:55:24.274Z,64.02
